TOURFACTS.DK  
Stats and Facts from Tour de France.

Tour de France 2019 starts in 324 days
  Riders   Stages   Teams   Summits   Yearly  


 
Search by year

After 2018 - Stage 21:
 15000 starters.
  5165 different riders.
  638 teams.
  2253 stages.
  456 restdays.
  442940.60 km.
  5684 abandonnees.


Top 3
GC
Geraint Thomas83:17:13
Tom Dumoulin83:19:04
Christopher Froome83:19:37
Climb
Julian Alaphilippe170 pt.
Warren Barguil91 pt.
Rafal Majka76 pt.
Sprint
Peter Sagan477 pt.
Alexander Kristoff246 pt.
Arnaud Démare203 pt.
Youth
Pierre-Roger Latou..83:39:26
Egan Bernal83:45:05
Guillaume Martin84:01:31
Facts from Tour de France 1975
  |   Stages.  |   Stage winners.  |   Days in yellow  |   Average speed.  |   Route.  |   Teams.  |   All riders.  |   Rookies.  |  

  |   Withdrawls.  |   GC.  |   Polka  |   Green  |   White  |   Summits. (In tour)  |   Miscellaneous.  |  

Stage 21 on 19 - 07 - 1975
         Owning:    Bernard Thevenet    
Pick a stage:  Pro 1a 1b 2 3 4 5 6 7 8 9a 9b 10 11 12 13 14 15 16 17 18 19 20 21 22
  MelunSenlis | Dist: 220.50 km.
Cat: 4Côte de l'Catenoy/Cóte de l'EscargotESPAntonio Menendez3 points 

Average speed for all riders in stage:  33,280 km./hr.
    Place:Name:Team:Time:Km/h:
1
BELRik Van LindenITABianchi-Campagnolo06:36:51  +  00:00:00=33,338 
2
NEDGerben KarstensFRAGitane-Campagnolo06:36:51  +  00:00:00=33,338 
3
ENGBarry HobanFRAGan-Mercier-Hutchinson06:36:51  +  00:00:00=33,338 
44 ITAFrancesco MoserITAFilotex06:36:51  +  00:00:00=33,338 
55 BELKarel RottiersITAMolteni06:36:51  +  00:00:00=33,338 
66 NEDGerard VianenFRAGan-Mercier-Hutchinson06:36:51  +  00:00:00=33,338 
77 BELMarc DemeyerBELCarpenter Confortluxe-Flandria06:36:51  +  00:00:00=33,338 
88 FRARobert MintkiewiczFRAGitane-Campagnolo06:36:51  +  00:00:00=33,338 
99 ESPMariano MartinezFRAGitane-Campagnolo06:36:51  +  00:00:00=33,338 
1010 PORJoaquim AgostinhoPRTSporting-Sottomayor06:36:51  +  00:00:00=33,338 
1111 BELLudo DelcroixITAMolteni06:36:51  +  00:00:00=33,338 
1212 FRAHubert MathisBELMiko-De Gribaldy06:36:51  +  00:00:00=33,338 
1313 NEDHennie KuiperNLDFrisol-G.B.C.06:36:51  +  00:00:00=33,338 
1414 BELJosé De CauwerNLDFrisol-G.B.C.06:36:51  +  00:00:00=33,338 
1515 DENOle RitterITAFilotex06:36:51  +  00:00:00=33,338 
1616 BELAlbert Van VlierbergheBELMiko-De Gribaldy06:36:51  +  00:00:00=33,338 
1717 ITAMauro SimonettiITAFilotex06:36:51  +  00:00:00=33,338 
1818 ITARenato MarchettiITAFilotex06:36:51  +  00:00:00=33,338 
1919 FRASerge ParsaniITABianchi-Campagnolo06:36:51  +  00:00:00=33,338 
2020 FRARoger LegeayFRAJobo-Wolber06:36:51  +  00:00:00=33,338 
2121 ITASigfrido FontanelliITAFilotex06:36:51  +  00:00:00=33,338 
2222 FRAMaurice Le GuillouxFRAGitane-Campagnolo06:36:51  +  00:00:00=33,338 
2323 BELHerman Van SpringelBELCarpenter Confortluxe-Flandria06:36:51  +  00:00:00=33,338 
2424 FRAGeorges TalbourdetFRAGan-Mercier-Hutchinson06:36:51  +  00:00:00=33,338 
2525 BELFrans Van VlierbergheBELMiko-De Gribaldy06:36:51  +  00:00:00=33,338 
2626 BELRonald De WitteBELCarpenter Confortluxe-Flandria06:36:51  +  00:00:00=33,338 
2727 ITAGiovanni CavalcantiITABianchi-Campagnolo06:36:51  +  00:00:00=33,338 
2828 NEDHenk PrinsenNLDFrisol-G.B.C.06:36:51  +  00:00:00=33,338 
2929 NEDGerard KamperNLDFrisol-G.B.C.06:36:51  +  00:00:00=33,338 
3030 ITALuigi CastellettiITABianchi-Campagnolo06:36:51  +  00:00:00=33,338 
3131 FRARichard PianaroFRAJobo-Wolber06:36:51  +  00:00:00=33,338 
3232 NEDJoop ZoetemelkFRAGan-Mercier-Hutchinson06:36:51  +  00:00:00=33,338 
3333 BELMichel PollentierBELCarpenter Confortluxe-Flandria06:36:51  +  00:00:00=33,338 
3434 ESPVicente LopezESPKas-Kaskol06:36:51  +  00:00:00=33,338 
3535 ITARoberto PoggialiITAFilotex06:36:51  +  00:00:00=33,338 
3636 PORFernando FerreiraPRTSporting-Sottomayor06:36:51  +  00:00:00=33,338 
3737 BELAndre DoyenBELMiko-De Gribaldy06:36:51  +  00:00:00=33,338 
3838 AUSDonald AllanNLDFrisol-G.B.C.06:36:51  +  00:00:00=33,338 
3939 FRAJoël MillardFRAJobo-Wolber06:36:51  +  00:00:00=33,338 
4040 BELEddy MerckxITAMolteni06:36:51  +  00:00:00=33,338 
4141 BELFrans MintjensITAMolteni06:37:02  +  00:00:11=33,322 
4242 ESPJosé-Luis ViejoESPSuper Ser06:37:07  +  00:00:16=33,315 
4343 FRARégis OvionFRAPeugeot-BP-Michelin06:37:07  +  00:00:16=33,315 
4444 FRABernard ThevenetFRAPeugeot-BP-Michelin06:37:07  +  00:00:16=33,315 
4545 ESPPedro TorresESPSuper Ser06:37:19  +  00:00:28=33,298 
4646 BELLucien Van ImpeFRAGitane-Campagnolo06:37:19  +  00:00:28=33,298 
4747 FRARaymond PoulidorFRAGan-Mercier-Hutchinson06:37:19  +  00:00:28=33,298 
4848 SUIJosef FuchsITAFilotex06:37:19  +  00:00:28=33,298 
4949 FRASylvain VasseurESPSuper Ser06:37:19  +  00:00:28=33,298 
5050 ESPJosé CasasESPSuper Ser06:37:19  +  00:00:28=33,298 
5151 ITASimone FraccaroITABianchi-Campagnolo06:37:19  +  00:00:28=33,298 
5252 FRAJean-Claude MisacFRAGan-Mercier-Hutchinson06:37:19  +  00:00:28=33,298 
5353 FRARegis DelepineBELCarpenter Confortluxe-Flandria06:37:19  +  00:00:28=33,298 
5454 BELJos De SchoenmaeckerITAMolteni06:37:19  +  00:00:28=33,298 
5555 FRAFerdinand JulienPRTSporting-Sottomayor06:37:19  +  00:00:28=33,298 
5656 BELTony HoubrechtsITABianchi-Campagnolo06:37:19  +  00:00:28=33,298 
5757 FRAGerard MoneyronBELCarpenter Confortluxe-Flandria06:37:19  +  00:00:28=33,298 
5858 ESPAndré RomeroFRAJobo-Wolber06:37:19  +  00:00:28=33,298 
5959 FRABernard BourreauFRAPeugeot-BP-Michelin06:37:19  +  00:00:28=33,298 
6060 ITAFelice GimondiITABianchi-Campagnolo06:37:19  +  00:00:28=33,298 
6161 FRAPatrick BeonFRAPeugeot-BP-Michelin06:37:19  +  00:00:28=33,298 
6262 BELRené DillenFRAGitane-Campagnolo06:37:19  +  00:00:28=33,298 
6363 FRARaymond DelisleFRAPeugeot-BP-Michelin06:37:19  +  00:00:28=33,298 
6464 FRACharly RouxelFRAPeugeot-BP-Michelin06:37:19  +  00:00:28=33,298 
6565 BELEduard JanssensITAMolteni06:37:19  +  00:00:28=33,298 
6666 FRAYves HézardFRAGan-Mercier-Hutchinson06:37:19  +  00:00:28=33,298 
6767 ESPLuis BalagueESPSuper Ser06:37:19  +  00:00:28=33,298 
6868 PORJosé AmaroPRTSporting-Sottomayor06:37:19  +  00:00:28=33,298 
6969 FRAClaude MagniFRAJobo-Wolber06:37:19  +  00:00:28=33,298 
7070 ESPCarlos MeleroESPKas-Kaskol06:37:19  +  00:00:28=33,298 
7171 FRARaymond MartinFRAGitane-Campagnolo06:37:19  +  00:00:28=33,298 
7272 FRAFrancis CampanerPRTSporting-Sottomayor06:37:19  +  00:00:28=33,298 
7373 BELWilly TeirlinckFRAGitane-Campagnolo06:37:35  +  00:00:44=33,276 
7474 NEDFedor Iwan Den HertogNLDFrisol-G.B.C.06:37:35  +  00:00:44=33,276 
7575 ESPJosé PesarrodonaESPKas-Kaskol06:37:35  +  00:00:44=33,276 
7676 ESPJosé GrandeESPKas-Kaskol06:37:35  +  00:00:44=33,276 
7777 ITAFabrizio FabbriITABianchi-Campagnolo06:37:35  +  00:00:44=33,276 
7878 MARAntoine GutierrezBELMiko-De Gribaldy06:37:55  +  00:01:04=33,248 
7979 BELJoseph SpruytITAMolteni06:37:55  +  00:01:04=33,248 
8080 ITAGiacinto SantambrogioITABianchi-Campagnolo06:37:58  +  00:01:07=33,244 
8181 COLMartìn RodríguezITABianchi-Campagnolo06:38:18  +  00:01:27=33,216 
8282 BELMarc LievensITAMolteni06:38:51  +  00:02:00=33,170 
8383 NEDGerrie KnetemannFRAGan-Mercier-Hutchinson06:38:55  +  00:02:04=33,165 
8484 BELWalter GodefrootBELCarpenter Confortluxe-Flandria06:39:23  +  00:02:32=33,126 
8585 BELJoseph HuysmansITAMolteni06:39:23  +  00:02:32=33,126 
8686 FRAJoel HauvieuxFRAJobo-Wolber06:39:40  +  00:02:49=33,103 
8787 FRAGuy LeleuFRAGitane-Campagnolo06:40:51  +  00:04:00=33,005 
8888 FRAJacques BoulasFRAJobo-Wolber06:45:49  +  00:08:58=32,601 
8989 FRAGuy SibilleFRAPeugeot-BP-Michelin06:50:57  +  00:14:06=32,194 

Withdrawls: 1
 
Rider
Team
Reason
28  ESPAntonio MenendezESPKas-KaskolDid not finish
Todays birthdays.

1883  Albert Niepçeron
1911  Camille Leroy
1914  Gaston Grimbert
1940  José Momeñe
1956  Régis Clère
1957  Alfonso Dal Pian
1960  Samuel Cabrera
1967  Christophe Capelle
1976  Dimitiri Fofonov
1980  Giampaolo Caruso
1983  Jean-Marc Marino




Visits: